createdAt,value
2022-09-01T05:14:56.469Z,2612
2022-09-01T05:19:39.087Z,2938
2022-09-01T05:24:20.398Z,3409
2022-09-01T05:29:02.625Z,3444
2022-09-01T05:33:44.926Z,4214
2022-09-01T05:38:27.238Z,4746
2022-09-01T05:43:09.450Z,5187
2022-09-01T05:47:51.760Z,5932
2022-09-01T05:52:34.080Z,6366
2022-09-01T05:57:16.291Z,6974
2022-09-01T06:01:58.606Z,7589
2022-09-01T06:06:40.916Z,8165
2022-09-01T06:11:23.127Z,9021
2022-09-01T06:16:05.441Z,9706
2022-09-01T06:20:47.753Z,10657
2022-09-01T06:25:28.963Z,11302
2022-09-01T06:30:11.279Z,11914
2022-09-01T06:34:53.590Z,12574
2022-09-01T06:39:35.802Z,12845
2022-09-01T06:44:18.112Z,13185
2022-09-01T06:49:00.427Z,13455
2022-09-01T06:53:42.677Z,14186
2022-09-01T06:58:23.968Z,14131
2022-09-01T07:03:05.264Z,14532
2022-09-01T07:07:47.612Z,15613
2022-09-01T07:12:29.887Z,16292
2022-09-01T07:17:12.114Z,16603
2022-09-01T07:21:54.406Z,16125
2022-09-01T07:26:36.715Z,16513
2022-09-01T07:31:18.932Z,16954
2022-09-01T07:36:01.244Z,17410
2022-09-01T07:40:43.554Z,17924
2022-09-01T07:45:25.767Z,19228
2022-09-01T07:50:08.078Z,19954
2022-09-01T07:54:50.391Z,19953
2022-09-01T07:59:32.602Z,20541
2022-09-01T08:04:13.910Z,21125
2022-09-01T08:08:56.226Z,21682
2022-09-01T08:13:38.433Z,22915
2022-09-01T08:18:20.747Z,23613
2022-09-01T08:23:03.056Z,24714
2022-09-01T08:27:45.364Z,25748
2022-09-01T08:32:27.583Z,25607
2022-09-01T08:37:08.885Z,25832
2022-09-01T08:41:50.199Z,27613
2022-09-01T08:46:32.518Z,28626
2022-09-01T08:51:14.728Z,28039
2022-09-01T08:55:57.037Z,29358
2022-09-01T09:00:39.342Z,24802
2022-09-01T09:05:21.564Z,26957
2022-09-01T09:10:03.870Z,25171
2022-09-01T09:14:46.182Z,23002
2022-09-01T09:19:28.392Z,23360
2022-09-01T09:24:10.706Z,26371
2022-09-01T09:28:53.017Z,23709
2022-09-01T09:33:35.226Z,31030
2022-09-01T09:38:17.536Z,41187
2022-09-01T09:42:58.850Z,27965
2022-09-01T09:47:41.167Z,29699
2022-09-01T09:52:23.373Z,25605
2022-09-01T09:57:05.684Z,21448
2022-09-01T10:01:47.996Z,36585
2022-09-01T10:06:30.211Z,21167
2022-09-01T10:11:12.519Z,32390
2022-09-01T10:15:53.857Z,28182
2022-09-01T10:20:35.188Z,25398
2022-09-01T10:25:16.450Z,30241
2022-09-01T10:29:57.805Z,31986
2022-09-01T10:34:40.010Z,43522
2022-09-01T10:39:22.281Z,39414
2022-09-01T10:44:04.600Z,4624
2022-09-01T10:48:46.861Z,27119
2022-09-01T10:53:29.166Z,14001
2022-09-01T10:58:11.485Z,11525
2022-09-01T11:02:53.702Z,12601
2022-09-01T11:07:36.022Z,12709
2022-09-01T11:12:18.292Z,12863
2022-09-01T11:17:00.620Z,13239
2022-09-01T11:21:42.817Z,14578
2022-09-01T11:26:25.186Z,17764
2022-09-01T11:31:06.518Z,21396
2022-09-01T11:35:48.669Z,22888
2022-09-01T11:40:31.010Z,25478
2022-09-01T11:45:13.283Z,26239
2022-09-01T11:49:55.488Z,28532
2022-09-01T11:54:37.805Z,31884
2022-09-01T11:59:20.071Z,32551
2022-09-01T12:04:01.395Z,37532
2022-09-01T12:08:42.687Z,36937
2022-09-01T12:13:24.030Z,40040
2022-09-01T12:18:05.353Z,41304
2022-09-01T12:22:47.576Z,57953
2022-09-01T12:27:28.849Z,47652
2022-09-01T12:32:10.185Z,53689
2022-09-01T12:36:52.481Z,54316
2022-09-01T12:41:34.709Z,59471
2022-09-01T12:46:17.022Z,50651
2022-09-01T12:50:59.324Z,6864
2022-09-01T12:55:41.492Z,17737
2022-09-01T13:00:23.800Z,55724
2022-09-01T13:05:06.118Z,25106
2022-09-01T13:09:48.437Z,27034
2022-09-01T13:14:30.635Z,39052
2022-09-01T13:19:12.944Z,28899
2022-09-01T13:23:55.278Z,29216
2022-09-01T13:28:37.490Z,28511
2022-09-01T13:33:18.775Z,34766
2022-09-01T13:38:01.099Z,63492
2022-09-01T13:42:43.400Z,42964
2022-09-01T13:47:25.611Z,29806
2022-09-01T13:52:07.935Z,26611
2022-09-01T13:56:50.239Z,18269
2022-09-01T14:01:32.443Z,25132
2022-09-01T14:06:13.780Z,56083
2022-09-01T14:10:55.060Z,19357
2022-09-01T14:15:37.374Z,16473
2022-09-01T14:20:19.720Z,17323
2022-09-01T14:25:01.897Z,16736
2022-09-01T14:34:26.524Z,23706
2022-09-01T14:39:08.853Z,19383
2022-09-01T14:43:51.058Z,14115
2022-09-01T14:48:33.358Z,7097
2022-09-01T14:53:15.666Z,6433
2022-09-01T14:57:57.873Z,6059
2022-09-01T15:02:40.203Z,6106
2022-09-01T15:07:22.500Z,6691
2022-09-01T15:12:03.725Z,7035
2022-09-01T15:16:46.015Z,8305
2022-09-01T15:21:28.327Z,9574
2022-09-01T15:26:10.635Z,11485
2022-09-01T15:30:52.854Z,12595
2022-09-01T15:35:35.155Z,11992
2022-09-01T15:40:17.469Z,14405
2022-09-01T15:44:58.770Z,14844
2022-09-01T15:49:39.983Z,14215
2022-09-01T15:54:21.317Z,15748
2022-09-01T15:59:02.599Z,15061
2022-09-01T16:03:44.909Z,14271
2022-09-01T16:08:27.220Z,13386
2022-09-01T16:13:09.452Z,12534
2022-09-01T16:17:51.742Z,11829
2022-09-01T16:22:34.062Z,10590
2022-09-01T16:27:16.264Z,10245
2022-09-01T16:31:58.647Z,8834
2022-09-01T16:36:40.882Z,9019
2022-09-01T16:41:23.110Z,8761
2022-09-01T16:46:05.412Z,7713
2022-09-01T16:50:47.789Z,6854
2022-09-01T16:55:30.033Z,6268
2022-09-01T17:00:11.419Z,5697
2022-09-01T17:04:53.634Z,5179
2022-09-01T17:09:35.850Z,4491
2022-09-01T17:14:18.071Z,4139
2022-09-01T17:19:00.377Z,3642
2022-09-01T17:23:42.706Z,3124
2022-09-01T17:28:24.898Z,2480
2022-09-01T17:33:07.211Z,1919
2022-09-01T17:37:48.517Z,1398
2022-09-01T17:42:29.832Z,1071
2022-09-01T17:47:12.130Z,791
2022-09-01T17:51:54.364Z,582
2022-09-01T17:56:36.657Z,423
2022-09-01T18:01:18.959Z,263
2022-09-01T18:06:01.173Z,141
2022-09-01T18:10:43.482Z,90
2022-09-01T18:15:25.791Z,33
2022-09-01T18:20:08.009Z,30
2022-09-01T18:24:50.317Z,15
2022-09-01T18:29:32.625Z,123
2022-09-01T18:34:14.939Z,9
2022-09-01T18:38:57.143Z,9
2022-09-01T18:43:38.451Z,9
2022-09-01T18:48:20.771Z,9
2022-09-01T18:53:02.970Z,9
2022-09-01T18:57:45.285Z,9
2022-09-01T19:02:27.591Z,9
2022-09-01T19:07:09.910Z,9
2022-09-01T19:11:52.123Z,9
2022-09-01T19:16:33.458Z,9
2022-09-01T19:21:14.738Z,9
2022-09-01T19:25:56.043Z,9
2022-09-01T19:30:37.346Z,4
2022-09-01T19:35:19.659Z,4
2022-09-01T19:40:01.878Z,4
2022-09-01T19:44:44.176Z,9
2022-09-01T19:49:26.486Z,4
2022-09-01T19:54:08.693Z,4
2022-09-01T19:58:51.074Z,4
2022-09-01T20:03:33.358Z,9
2022-09-01T20:08:15.524Z,4
2022-09-01T20:12:57.833Z,4
2022-09-01T20:17:40.147Z,9
2022-09-01T20:22:22.452Z,4
2022-09-01T20:27:04.670Z,9
2022-09-01T20:31:45.972Z,4
2022-09-01T20:36:28.280Z,4
2022-09-01T20:41:10.555Z,4
2022-09-01T20:45:52.813Z,9
2022-09-01T20:50:35.139Z,9
2022-09-01T20:55:17.422Z,9
2022-09-01T20:59:59.678Z,4
2022-09-01T21:04:40.939Z,9
2022-09-01T21:09:22.246Z,4
2022-09-01T21:14:04.568Z,4
2022-09-01T21:18:46.865Z,4
2022-09-01T21:23:29.075Z,9
2022-09-01T21:28:11.385Z,4
2022-09-01T21:32:53.720Z,4
2022-09-01T21:37:35.923Z,4
2022-09-01T21:42:18.213Z,9
2022-09-01T21:47:00.556Z,9
2022-09-01T21:51:42.796Z,9
2022-09-01T21:56:25.045Z,9
2022-09-01T22:01:07.401Z,4
2022-09-01T22:05:49.564Z,9
2022-09-01T22:10:30.884Z,9
2022-09-01T22:15:13.181Z,4
2022-09-01T22:19:55.532Z,9
2022-09-01T22:24:37.705Z,9
2022-09-01T22:29:20.044Z,9
2022-09-01T22:34:02.337Z,9
2022-09-01T22:38:44.631Z,9
2022-09-01T22:43:25.960Z,9
2022-09-01T22:48:07.147Z,4
2022-09-01T22:52:48.465Z,9
2022-09-01T22:57:29.819Z,9
2022-09-01T23:02:11.069Z,9
2022-09-01T23:06:52.375Z,9
2022-09-01T23:11:34.742Z,9
2022-09-01T23:16:17.009Z,4
2022-09-01T23:20:59.224Z,9
2022-09-01T23:25:41.547Z,9
2022-09-01T23:30:23.830Z,9
2022-09-01T23:35:06.056Z,4
2022-09-01T23:39:48.341Z,4
2022-09-01T23:44:30.664Z,9
2022-09-01T23:49:12.908Z,9
2022-09-01T23:53:55.168Z,4
2022-09-01T23:58:37.478Z,9
